Terminal Aerodrome Forecast
Issued by NWS Jackson, MS

Home | Current Version | Previous Version | Text Only | Print | Product List | Glossary On
Versions: 1 2 3 4 5 6 7 8 9 10 11 12 13 14
000
FTUS44 KMEG 011140
TAFTUP
TAF
KTUP 011140Z 0112/0212 20005KT P6SM FEW008
      TEMPO 0112/0114 BKN004
     FM011400 24008KT P6SM SCT015 BKN200
      TEMPO 0114/0115 BKN015
     FM011600 23007KT P6SM SCT035 BKN200
     FM011900 24008KT P6SM VCTS BKN040CB
      TEMPO 0120/0124 VRB10G25KT 3SM TSRA
     FM020100 20009KT P6SM SCT050 BKN200=

USA.gov is the U.S. government's official web portal to all federal, state and local government web resources and services.